Time;durP1;ratioP1;P1;durP2;ratioP2;P2;SDS_P1;SDS_P2;PMS_P1;PMS_P2;Temp;Humidity;BMP_temperature;BMP_pressure;BME280_temperature;BME280_humidity;BME280_pressure;Samples;Min_cycle;Max_cycle;Signal;HPM_P1;HPM_P2
2023/08/25 00:00:09;;;;;;;3.67;3.37;;;;;;;25.25;97.65;99262.00;5113420;28;20240;-64
2023/08/25 00:02:36;;;;;;;3.43;2.77;;;;;;;25.24;97.26;99282.16;5096678;28;20196;-64
2023/08/25 00:05:04;;;;;;;3.23;2.87;;;;;;;25.21;97.36;99274.56;5095976;28;20679;-64
2023/08/25 00:07:31;;;;;;;3.83;3.03;;;;;;;25.21;97.44;99276.38;5096829;28;20556;-64
2023/08/25 00:09:58;;;;;;;2.90;2.70;;;;;;;25.15;97.63;99258.56;5106678;28;20283;-64
2023/08/25 00:12:25;;;;;;;2.90;2.70;;;;;;;25.20;97.62;99270.31;5107152;28;20277;-64
2023/08/25 00:14:53;;;;;;;2.57;2.37;;;;;;;25.22;97.24;99272.78;5096857;28;20205;-64
2023/08/25 00:17:21;;;;;;;3.20;3.00;;;;;;;25.23;97.15;99269.19;5110531;28;20211;-64
2023/08/25 00:19:48;;;;;;;3.50;2.90;;;;;;;25.23;97.35;99274.44;5092438;28;20227;-65
2023/08/25 00:22:14;;;;;;;4.73;4.33;;;;;;;25.23;97.17;99279.69;5099561;28;20190;-64
2023/08/25 00:24:41;;;;;;;5.60;2.77;;;;;;;25.21;97.62;99282.44;5090880;28;20255;-64
2023/08/25 00:27:08;;;;;;;3.07;2.30;;;;;;;25.17;97.53;99283.69;5093246;28;20256;-64
2023/08/25 00:29:35;;;;;;;3.67;2.87;;;;;;;25.12;97.73;99287.72;5107646;28;20302;-64
2023/08/25 00:32:03;;;;;;;3.77;3.37;;;;;;;25.12;96.78;99277.22;5092314;28;20207;-64
2023/08/25 00:34:30;;;;;;;4.00;3.30;;;;;;;25.06;97.64;99274.19;5101133;28;20222;-64
2023/08/25 00:36:57;;;;;;;2.77;2.57;;;;;;;25.03;98.25;99284.16;5099197;28;20207;-64
2023/08/25 00:39:23;;;;;;;3.03;2.83;;;;;;;24.93;98.26;99286.78;5100568;28;20248;-64
2023/08/25 00:41:50;;;;;;;4.10;2.67;;;;;;;24.86;99.12;99288.31;5109697;28;20263;-64
2023/08/25 00:44:17;;;;;;;2.83;2.63;;;;;;;24.79;99.50;99281.91;5109645;27;20199;-64
2023/08/25 00:46:44;;;;;;;3.33;2.57;;;;;;;24.74;99.94;99286.75;5102903;28;20203;-64
2023/08/25 00:49:12;;;;;;;2.80;2.60;;;;;;;24.72;100.00;99274.78;5097509;28;20264;-64
2023/08/25 00:51:39;;;;;;;3.17;3.00;;;;;;;24.64;100.00;99278.06;5094754;28;20253;-64
2023/08/25 00:54:06;;;;;;;2.77;2.57;;;;;;;24.63;100.00;99275.56;5099164;28;20743;-65
2023/08/25 00:56:34;;;;;;;3.37;3.17;;;;;;;24.62;100.00;99274.75;5098754;28;20203;-65
2023/08/25 00:59:02;;;;;;;4.00;3.63;;;;;;;24.59;100.00;99275.00;5094990;28;20215;-64
2023/08/25 01:01:30;;;;;;;3.17;2.97;;;;;;;24.61;100.00;99283.59;5099251;28;20746;-64
2023/08/25 01:03:57;;;;;;;5.40;3.63;;;;;;;24.54;100.00;99280.69;5095696;28;20196;-64
2023/08/25 01:06:25;;;;;;;2.97;2.67;;;;;;;24.42;100.00;99283.56;5109096;28;20232;-64
2023/08/25 01:08:52;;;;;;;2.50;2.40;;;;;;;24.37;100.00;99286.59;5104523;28;20222;-64
2023/08/25 01:11:36;;;;;;;4.30;3.30;;;;;;;24.29;100.00;99288.25;5104863;28;20276;-64
2023/08/25 01:14:10;;;;;;;2.47;2.37;;;;;;;24.23;100.00;99292.25;5106333;28;21529;-64
2023/08/25 01:16:40;;;;;;;3.80;2.77;;;;;;;24.23;100.00;99291.41;5103402;28;20195;-64
2023/08/25 01:19:22;;;;;;;3.03;2.70;;;;;;;24.20;100.00;99291.69;5097280;28;20203;-65
2023/08/25 01:21:52;;;;;;;3.93;2.67;;;;;;;24.14;100.00;99294.81;5094766;28;20628;-64
2023/08/25 01:24:24;;;;;;;2.70;2.53;;;;;;;24.10;100.00;99296.03;5097154;28;20286;-64
2023/08/25 01:26:52;;;;;;;3.93;3.63;;;;;;;23.96;100.00;99290.22;5098572;28;20195;-65
2023/08/25 01:29:19;;;;;;;3.73;3.43;;;;;;;23.97;100.00;99291.84;5106258;28;20275;-64
2023/08/25 01:31:46;;;;;;;2.97;2.77;;;;;;;23.76;100.00;99288.47;5102380;28;20601;-64
2023/08/25 01:34:15;;;;;;;2.77;2.57;;;;;;;23.67;100.00;99288.44;5097477;28;20214;-64
2023/08/25 01:36:48;;;;;;;3.00;2.80;;;;;;;23.59;100.00;99294.31;5099979;28;20202;-64
2023/08/25 01:39:16;;;;;;;4.13;3.43;;;;;;;23.52;100.00;99295.81;5099195;28;20195;-64
2023/08/25 01:41:46;;;;;;;3.43;3.10;;;;;;;23.55;100.00;99300.78;5115065;28;20215;-64
2023/08/25 01:44:17;;;;;;;4.27;3.30;;;;;;;23.56;100.00;99296.38;5112509;28;20202;-64
2023/08/25 01:46:47;;;;;;;5.30;3.07;;;;;;;23.59;100.00;99298.75;5095486;28;20744;-64
2023/08/25 01:49:15;;;;;;;2.87;2.67;;;;;;;23.54;100.00;99306.97;5101995;28;20331;-65
2023/08/25 01:51:42;;;;;;;4.00;3.70;;;;;;;23.53;100.00;99305.31;5108074;28;20227;-63
2023/08/25 01:54:09;;;;;;;2.07;1.97;;;;;;;23.48;100.00;99297.88;5112154;28;20195;-64
2023/08/25 01:56:36;;;;;;;2.83;2.67;;;;;;;23.50;100.00;99292.50;5103469;28;20198;-64
2023/08/25 01:59:03;;;;;;;2.97;2.70;;;;;;;23.38;100.00;99285.66;5106355;28;20190;-64
2023/08/25 02:01:31;;;;;;;4.03;3.70;;;;;;;23.58;100.00;99299.69;5105290;28;20194;-64
2023/08/25 02:03:58;;;;;;;3.40;3.10;;;;;;;23.56;100.00;99299.81;5099829;28;20697;-64
2023/08/25 02:06:25;;;;;;;5.07;3.80;;;;;;;23.48;100.00;99291.81;5113814;28;20768;-64
2023/08/25 02:08:52;;;;;;;3.37;3.13;;;;;;;23.48;100.00;99312.72;5101318;28;20583;-64
2023/08/25 02:11:19;;;;;;;3.83;3.50;;;;;;;23.37;100.00;99307.53;5098450;28;20224;-64
2023/08/25 02:13:45;;;;;;;3.30;3.10;;;;;;;23.39;100.00;99303.03;5106113;28;20662;-65
2023/08/25 02:16:12;;;;;;;4.07;3.23;;;;;;;23.27;100.00;99288.34;5105541;28;20198;-64
2023/08/25 02:18:40;;;;;;;3.53;3.33;;;;;;;23.27;100.00;99298.78;5106651;28;20198;-64
2023/08/25 02:21:07;;;;;;;3.60;2.80;;;;;;;23.26;100.00;99302.38;5108130;28;20198;-64
2023/08/25 02:23:34;;;;;;;3.57;3.23;;;;;;;23.20;100.00;99310.75;5102858;28;20659;-64
2023/08/25 02:26:00;;;;;;;3.57;2.90;;;;;;;23.14;100.00;99313.84;5103290;28;20202;-65
2023/08/25 02:28:27;;;;;;;3.23;2.90;;;;;;;23.11;100.00;99319.34;5100108;28;20199;-64
2023/08/25 02:30:54;;;;;;;3.87;3.57;;;;;;;23.12;100.00;99326.22;5109316;28;20681;-64
2023/08/25 02:33:20;;;;;;;5.93;2.83;;;;;;;23.14;100.00;99326.94;5102814;28;20199;-64
2023/08/25 02:35:49;;;;;;;3.10;2.90;;;;;;;23.14;100.00;99306.00;5108527;28;20195;-64
2023/08/25 02:38:15;;;;;;;3.37;3.10;;;;;;;23.19;100.00;99303.84;5097529;28;20663;-64
2023/08/25 02:40:42;;;;;;;3.73;3.43;;;;;;;23.32;100.00;99328.03;5099120;28;20323;-64
2023/08/25 02:43:09;;;;;;;3.87;3.47;;;;;;;23.36;100.00;99324.22;5097121;28;20741;-64
2023/08/25 02:45:36;;;;;;;2.27;2.17;;;;;;;23.37;100.00;99325.84;5108602;28;20194;-64
2023/08/25 02:48:04;;;;;;;2.60;2.40;;;;;;;23.19;100.00;99312.53;5097779;28;20203;-64
2023/08/25 02:50:31;;;;;;;2.70;2.50;;;;;;;23.24;100.00;99319.97;5086547;28;20215;-65
2023/08/25 02:52:59;;;;;;;3.73;2.90;;;;;;;23.21;100.00;99320.22;5104634;28;20666;-64
2023/08/25 02:55:26;;;;;;;2.30;2.20;;;;;;;23.12;100.00;99321.84;5104258;28;20200;-65
2023/08/25 02:57:53;;;;;;;2.93;2.83;;;;;;;23.08;100.00;99324.81;5107057;28;20202;-64
2023/08/25 03:00:23;;;;;;;3.53;2.80;;;;;;;23.13;100.00;99322.69;5099744;28;20261;-64
2023/08/25 03:02:49;;;;;;;5.53;3.17;;;;;;;23.20;100.00;99329.88;5105912;28;20210;-64
2023/08/25 03:05:16;;;;;;;5.53;2.73;;;;;;;23.27;100.00;99332.78;5096985;28;20200;-64
2023/08/25 03:07:43;;;;;;;3.33;3.03;;;;;;;23.27;100.00;99340.66;5100645;28;20202;-64
2023/08/25 03:10:12;;;;;;;4.87;3.53;;;;;;;23.23;100.00;99336.66;5105502;28;20272;-65
2023/08/25 03:12:39;;;;;;;2.93;2.73;;;;;;;23.25;100.00;99339.97;5102754;28;20314;-65
2023/08/25 03:15:07;;;;;;;3.23;1.80;;;;;;;23.27;100.00;99345.88;5097161;27;20636;-64
2023/08/25 03:17:33;;;;;;;5.37;2.67;;;;;;;23.30;100.00;99340.38;5111152;28;20198;-65
2023/08/25 03:20:00;;;;;;;3.23;3.03;;;;;;;23.32;100.00;99341.09;5109997;28;20194;-64
2023/08/25 03:22:27;;;;;;;3.77;3.47;;;;;;;23.22;100.00;99340.22;5114183;28;20199;-66
2023/08/25 03:24:54;;;;;;;2.93;2.73;;;;;;;23.26;100.00;99352.09;5105183;28;20198;-64
2023/08/25 03:27:22;;;;;;;3.83;3.30;;;;;;;23.29;100.00;99354.44;5103484;28;20665;-64
2023/08/25 03:29:48;;;;;;;2.83;2.53;;;;;;;23.20;100.00;99344.75;5108300;28;20772;-64
2023/08/25 03:32:15;;;;;;;3.40;2.97;;;;;;;23.23;100.00;99363.59;5097744;28;20195;-64
2023/08/25 03:34:42;;;;;;;3.20;3.00;;;;;;;23.19;100.00;99364.84;5100188;28;20191;-65
2023/08/25 03:37:08;;;;;;;2.80;2.60;;;;;;;23.17;100.00;99361.50;5101930;28;20671;-64
2023/08/25 03:39:35;;;;;;;3.03;2.77;;;;;;;23.13;100.00;99354.06;5113070;28;20198;-64
2023/08/25 03:42:02;;;;;;;3.30;3.00;;;;;;;23.21;100.00;99346.38;5104381;28;20636;-65
2023/08/25 03:44:30;;;;;;;3.23;3.03;;;;;;;23.24;100.00;99351.38;5110819;28;20203;-64
2023/08/25 03:46:57;;;;;;;4.40;2.80;;;;;;;23.23;100.00;99352.34;5103824;28;20198;-64
2023/08/25 03:49:28;;;;;;;4.83;2.93;;;;;;;23.21;100.00;99351.63;5096375;28;20667;-64
2023/08/25 03:51:55;;;;;;;3.00;2.80;;;;;;;23.21;100.00;99351.63;5095673;28;20671;-64
2023/08/25 03:54:22;;;;;;;3.00;2.80;;;;;;;23.16;100.00;99348.56;5111156;28;20203;-65
2023/08/25 03:56:49;;;;;;;4.43;3.00;;;;;;;23.17;100.00;99347.59;5103284;28;20208;-64
2023/08/25 03:59:15;;;;;;;3.20;2.90;;;;;;;23.20;100.00;99342.94;5100305;28;20244;-64
2023/08/25 04:01:43;;;;;;;4.13;3.73;;;;;;;23.23;100.00;99342.69;5106493;28;20257;-64
2023/08/25 04:04:18;;;;;;;2.80;2.53;;;;;;;23.23;100.00;99344.50;5098249;28;20326;-65
2023/08/25 04:06:44;;;;;;;2.60;2.40;;;;;;;23.25;100.00;99343.41;5093126;28;20568;-64
2023/08/25 04:09:13;;;;;;;3.57;3.37;;;;;;;23.19;100.00;99345.69;5108238;28;20259;-64
2023/08/25 04:11:39;;;;;;;6.60;3.07;;;;;;;23.17;100.00;99339.75;5097808;28;20230;-64
2023/08/25 04:14:06;;;;;;;2.97;2.87;;;;;;;23.10;100.00;99349.91;5104151;28;20637;-65
2023/08/25 04:16:33;;;;;;;3.47;3.17;;;;;;;23.07;100.00;99344.09;5104725;28;20198;-64
2023/08/25 04:19:01;;;;;;;4.20;3.13;;;;;;;23.06;100.00;99348.50;5092649;28;20199;-65
2023/08/25 04:21:27;;;;;;;5.17;3.67;;;;;;;23.10;100.00;99354.31;5097837;28;20195;-64
2023/08/25 04:23:54;;;;;;;2.70;2.53;;;;;;;23.13;100.00;99354.06;5105110;28;20207;-64
2023/08/25 04:26:21;;;;;;;3.63;2.80;;;;;;;23.13;100.00;99354.88;5103465;28;20203;-64
2023/08/25 04:28:47;;;;;;;3.20;2.97;;;;;;;23.18;100.00;99354.50;5110302;28;20202;-64
2023/08/25 04:31:14;;;;;;;4.03;3.23;;;;;;;23.18;100.00;99351.88;5104219;28;20279;-64
2023/08/25 04:33:41;;;;;;;8.47;2.70;;;;;;;23.20;100.00;99361.25;5095573;28;20196;-64
2023/08/25 04:36:09;;;;;;;3.50;3.07;;;;;;;23.29;100.00;99370.13;5098940;28;20243;-64
2023/08/25 04:38:35;;;;;;;5.30;3.10;;;;;;;23.25;100.00;99350.41;5092149;28;20199;-64
2023/08/25 04:41:02;;;;;;;3.83;3.30;;;;;;;23.39;100.00;99371.03;5098022;28;20630;-64
2023/08/25 04:43:29;;;;;;;3.80;3.50;;;;;;;23.44;100.00;99369.72;5098242;28;20658;-65
2023/08/25 04:45:56;;;;;;;9.63;5.63;;;;;;;23.51;100.00;99370.88;5094882;28;20211;-64
2023/08/25 04:48:23;;;;;;;4.33;3.83;;;;;;;23.65;100.00;99367.06;5092656;28;20587;-64
2023/08/25 04:50:50;;;;;;;6.43;4.43;;;;;;;23.82;100.00;99363.03;5102168;28;20314;-64
2023/08/25 04:53:18;;;;;;;4.30;3.80;;;;;;;23.94;100.00;99354.97;5100654;28;20200;-64
2023/08/25 04:55:46;;;;;;;4.43;4.13;;;;;;;24.17;100.00;99362.69;5092004;28;20203;-65
2023/08/25 04:58:13;;;;;;;4.13;3.73;;;;;;;24.37;100.00;99369.63;5105050;28;20202;-64
2023/08/25 05:00:40;;;;;;;6.03;3.90;;;;;;;24.52;100.00;99363.03;5103794;28;20666;-64
2023/08/25 05:03:08;;;;;;;5.97;3.33;;;;;;;24.67;100.00;99377.41;5107463;28;20194;-65
2023/08/25 05:05:35;;;;;;;4.83;4.33;;;;;;;24.80;100.00;99367.50;5107809;28;20251;-64
2023/08/25 05:08:02;;;;;;;3.23;3.03;;;;;;;25.07;100.00;99372.91;5109046;28;20198;-64
2023/08/25 05:10:30;;;;;;;4.57;4.07;;;;;;;25.27;100.00;99378.13;5097437;28;20223;-64
2023/08/25 05:12:56;;;;;;;3.90;3.60;;;;;;;25.46;100.00;99372.88;5092752;28;20624;-64
2023/08/25 05:15:23;;;;;;;4.60;4.30;;;;;;;25.72;100.00;99373.94;5101615;28;20195;-64
2023/08/25 05:17:51;;;;;;;5.03;3.30;;;;;;;25.89;97.07;99372.38;5098336;28;20269;-65
2023/08/25 05:20:20;;;;;;;3.53;3.30;;;;;;;26.08;96.68;99377.53;5104863;28;20259;-64
2023/08/25 05:22:47;;;;;;;6.60;3.70;;;;;;;26.26;94.81;99382.91;5112043;28;20255;-65
2023/08/25 05:25:14;;;;;;;7.87;4.23;;;;;;;26.42;93.52;99385.72;5096935;28;20191;-65
2023/08/25 05:27:42;;;;;;;4.23;3.40;;;;;;;26.57;94.12;99385.06;5107241;28;20202;-65
2023/08/25 05:30:09;;;;;;;5.73;4.03;;;;;;;26.69;92.72;99367.25;5100500;28;20218;-65
2023/08/25 05:32:36;;;;;;;4.83;3.60;;;;;;;26.91;90.10;99387.09;5107164;28;20330;-65
2023/08/25 05:35:03;;;;;;;4.80;4.17;;;;;;;27.09;90.70;99390.53;5095560;28;20207;-65
2023/08/25 05:37:30;;;;;;;3.87;3.57;;;;;;;27.27;88.50;99398.44;5104325;28;20260;-65
2023/08/25 05:39:58;;;;;;;3.40;3.20;;;;;;;27.48;87.25;99398.94;5098779;28;20256;-65
2023/08/25 05:42:27;;;;;;;5.73;4.00;;;;;;;27.66;86.82;99391.81;5091704;28;20288;-65
2023/08/25 05:44:55;;;;;;;3.90;3.53;;;;;;;27.92;83.55;99400.56;5105199;28;20199;-65
2023/08/25 05:47:22;;;;;;;4.73;3.53;;;;;;;28.14;84.20;99399.25;5098982;28;20199;-65
2023/08/25 05:49:50;;;;;;;3.87;2.97;;;;;;;28.28;81.85;99408.34;5096129;28;20199;-65
2023/08/25 05:52:17;;;;;;;3.70;3.43;;;;;;;28.41;81.62;99406.09;5101356;28;20214;-65
2023/08/25 05:54:47;;;;;;;3.83;3.53;;;;;;;28.53;80.39;99410.09;5103299;28;20206;-65
2023/08/25 05:57:14;;;;;;;3.35;2.58;;;;;;;28.64;79.96;99400.06;5100502;28;20232;-65
2023/08/25 05:59:41;;;;;;;3.20;2.97;;;;;;;28.77;79.45;99404.06;5092730;28;20248;-65
2023/08/25 06:02:10;;;;;;;4.60;3.43;;;;;;;28.87;77.84;99404.75;5101872;28;20244;-66
2023/08/25 06:04:36;;;;;;;3.60;3.25;;;;;;;28.98;77.29;99405.25;5101756;28;20666;-65
2023/08/25 06:07:03;;;;;;;3.22;2.92;;;;;;;29.06;75.76;99402.66;5100150;28;20200;-65
2023/08/25 06:09:30;;;;;;;8.90;3.40;;;;;;;29.24;77.64;99406.97;5100283;28;20195;-65
2023/08/25 06:11:57;;;;;;;3.85;3.28;;;;;;;29.35;74.83;99411.94;5095048;28;20756;-65
2023/08/25 06:14:23;;;;;;;3.70;3.40;;;;;;;29.48;73.59;99407.78;5096238;28;20198;-65
2023/08/25 06:16:50;;;;;;;3.25;3.03;;;;;;;29.70;73.53;99412.38;5096966;28;20210;-64
2023/08/25 06:19:18;;;;;;;3.45;3.22;;;;;;;29.82;72.05;99406.78;5107145;28;20245;-65
2023/08/25 06:33:06;;;;;;;4.90;3.42;;;;;;;30.93;66.13;99363.28;5086721;27;20569;-68
2023/08/25 06:35:32;;;;;;;3.25;3.00;;;;;;;31.28;66.54;99404.28;5087047;28;20211;-67
2023/08/25 06:37:59;;;;;;;3.53;3.25;;;;;;;31.39;65.60;99409.13;5084928;28;20203;-68
2023/08/25 06:40:26;;;;;;;3.95;3.65;;;;;;;31.37;63.74;99417.28;5087295;28;20198;-68
2023/08/25 06:42:53;;;;;;;3.17;2.97;;;;;;;31.41;64.81;99410.59;5087911;28;20253;-67
2023/08/25 06:45:21;;;;;;;3.28;2.92;;;;;;;31.47;67.75;99409.88;5085548;28;20651;-67
2023/08/25 06:47:50;;;;;;;6.90;3.15;;;;;;;31.56;66.85;99405.38;5087129;28;20239;-67
2023/08/25 06:50:18;;;;;;;6.65;4.40;;;;;;;31.67;64.75;99404.94;5083139;28;20287;-67
2023/08/25 06:52:45;;;;;;;4.47;2.65;;;;;;;31.82;62.11;99403.13;5087211;28;20268;-68
2023/08/25 06:55:11;;;;;;;3.22;3.00;;;;;;;31.89;62.15;99403.22;5083833;28;20195;-67
2023/08/25 06:57:38;;;;;;;2.80;2.60;;;;;;;31.98;63.63;99402.97;5086873;28;20294;-67
2023/08/25 07:00:06;;;;;;;3.05;2.88;;;;;;;32.10;60.98;99396.22;5086629;28;20524;-68
2023/08/25 07:02:33;;;;;;;3.28;3.08;;;;;;;32.22;64.09;99393.91;5084799;28;20277;-68
2023/08/25 07:05:00;;;;;;;3.33;3.00;;;;;;;32.31;60.92;99405.25;5087399;28;20606;-67
2023/08/25 07:07:28;;;;;;;3.05;2.85;;;;;;;32.46;60.14;99414.00;5087440;28;20253;-68
2023/08/25 07:09:55;;;;;;;3.83;2.95;;;;;;;32.43;61.68;99409.09;5087644;28;20230;-67
2023/08/25 07:12:22;;;;;;;3.63;3.33;;;;;;;32.43;61.52;99409.09;5086628;28;20249;-68
2023/08/25 07:14:49;;;;;;;3.67;3.35;;;;;;;32.55;61.05;99407.59;5087885;28;20290;-67
2023/08/25 07:17:16;;;;;;;4.22;3.78;;;;;;;32.73;60.63;99397.44;5087591;28;20203;-68
2023/08/25 07:19:43;;;;;;;2.97;2.78;;;;;;;32.85;60.89;99395.91;5087727;28;20199;-68
2023/08/25 07:22:10;;;;;;;3.50;3.20;;;;;;;32.76;59.64;99402.34;5086816;28;20215;-67
2023/08/25 07:24:38;;;;;;;3.28;2.88;;;;;;;32.76;62.03;99394.38;5087863;28;20195;-67
2023/08/25 07:27:05;;;;;;;5.32;3.63;;;;;;;32.61;61.92;99402.38;5087196;28;20203;-67
2023/08/25 07:29:31;;;;;;;2.83;2.63;;;;;;;32.67;60.54;99392.84;5087413;28;20199;-67
2023/08/25 07:31:58;;;;;;;3.60;3.05;;;;;;;32.71;60.43;99394.94;5085497;28;20276;-68
2023/08/25 07:34:25;;;;;;;3.85;3.60;;;;;;;32.75;60.58;99395.38;5073459;28;20196;-67
2023/08/25 07:36:53;;;;;;;3.83;2.97;;;;;;;32.95;60.27;99395.59;5073784;28;20230;-68
2023/08/25 07:39:20;;;;;;;3.65;3.25;;;;;;;33.12;58.61;99392.50;5073658;28;20192;-68
2023/08/25 07:41:48;;;;;;;4.50;3.20;;;;;;;33.28;57.09;99399.41;5073597;28;20273;-68
2023/08/25 07:44:15;;;;;;;4.50;3.20;;;;;;;33.13;57.72;99388.84;5073496;28;20256;-67
2023/08/25 07:46:42;;;;;;;3.90;3.50;;;;;;;33.32;57.96;99386.53;5073565;28;20204;-67
2023/08/25 07:49:09;;;;;;;3.72;3.42;;;;;;;33.48;60.81;99397.72;5073412;28;20193;-66
2023/08/25 07:51:36;;;;;;;3.65;3.30;;;;;;;33.70;59.29;99394.03;5073805;28;20196;-67
2023/08/25 07:54:03;;;;;;;4.05;3.60;;;;;;;33.87;59.91;99404.34;5073549;28;20192;-67
2023/08/25 07:56:30;;;;;;;3.42;3.22;;;;;;;33.72;59.11;99392.00;5073278;28;20196;-67
2023/08/25 07:58:58;;;;;;;3.28;2.97;;;;;;;33.82;59.96;99393.50;5073402;28;20258;-67
2023/08/25 08:01:25;;;;;;;4.15;3.70;;;;;;;33.94;58.20;99392.75;5073158;28;20289;-67
2023/08/25 08:03:51;;;;;;;5.63;3.10;;;;;;;34.05;57.25;99394.88;5073563;28;20192;-67
2023/08/25 08:06:18;;;;;;;4.82;3.88;;;;;;;34.22;56.22;99385.53;5073072;28;20222;-67
2023/08/25 08:08:45;;;;;;;3.63;3.33;;;;;;;34.35;58.03;99383.97;5073129;28;20253;-67
2023/08/25 08:11:15;;;;;;;4.70;3.47;;;;;;;34.17;56.00;99349.91;5073222;28;20737;-66
2023/08/25 08:13:42;;;;;;;4.90;3.97;;;;;;;34.29;57.37;99370.44;5073248;28;20196;-67
2023/08/25 08:16:10;;;;;;;3.80;3.45;;;;;;;34.25;56.82;99382.47;5073139;28;20204;-67
2023/08/25 08:18:36;;;;;;;3.65;3.45;;;;;;;34.22;56.71;99385.53;5073103;28;20679;-67
2023/08/25 08:21:03;;;;;;;4.13;3.05;;;;;;;34.32;57.31;99381.69;5073020;28;20200;-67
2023/08/25 08:23:30;;;;;;;3.15;2.95;;;;;;;34.47;54.78;99382.38;5072989;28;20196;-67
2023/08/25 08:25:58;;;;;;;3.38;3.15;;;;;;;34.68;54.49;99379.59;5072923;28;20196;-67
2023/08/25 08:28:25;;;;;;;3.22;3.03;;;;;;;34.72;54.62;99370.19;5072530;28;20192;-66
2023/08/25 08:30:51;;;;;;;6.78;3.63;;;;;;;34.81;55.51;99374.28;5072952;28;20614;-67
2023/08/25 08:33:19;;;;;;;3.72;3.42;;;;;;;34.90;56.13;99377.59;5072533;28;20249;-66
2023/08/25 08:35:46;;;;;;;3.72;3.38;;;;;;;34.73;54.81;99369.16;5072629;28;20196;-67
2023/08/25 08:38:15;;;;;;;3.65;3.35;;;;;;;34.70;55.19;99369.56;5072759;28;20204;-67
2023/08/25 08:40:42;;;;;;;4.32;3.70;;;;;;;34.52;53.88;99379.94;5072387;28;20203;-67
2023/08/25 08:43:14;;;;;;;3.90;3.70;;;;;;;34.43;56.12;99375.81;5072436;28;20264;-67
2023/08/25 08:45:44;;;;;;;10.50;3.90;;;;;;;34.60;56.42;99364.63;5071738;28;20587;-67
2023/08/25 08:48:13;;;;;;;3.40;3.20;;;;;;;34.33;57.93;99360.22;5072367;28;20196;-67
2023/08/25 08:50:44;;;;;;;5.28;3.17;;;;;;;34.34;56.19;99374.34;5072429;28;20557;-66
2023/08/25 08:53:11;;;;;;;3.38;3.15;;;;;;;34.51;57.01;99357.00;5072361;28;20199;-67
2023/08/25 08:55:39;;;;;;;3.67;3.40;;;;;;;34.70;56.43;99361.59;5072411;28;20261;-67
2023/08/25 08:58:06;;;;;;;3.13;2.92;;;;;;;34.69;56.10;99346.63;5072325;28;20663;-67
2023/08/25 09:00:33;;;;;;;3.50;3.20;;;;;;;34.82;55.61;99348.47;5071980;28;20637;-67
2023/08/25 09:03:06;;;;;;;3.75;2.88;;;;;;;34.99;53.88;99350.56;5071977;28;20211;-67
2023/08/25 09:05:38;;;;;;;4.05;3.75;;;;;;;35.18;55.90;99356.94;5071831;28;20256;-67
2023/08/25 09:08:09;;;;;;;3.55;3.25;;;;;;;34.98;55.60;99351.56;5072085;28;20223;-67
2023/08/25 09:10:36;;;;;;;4.75;4.32;;;;;;;34.84;54.83;99344.59;5072193;28;20215;-67
2023/08/25 09:13:03;;;;;;;3.58;3.38;;;;;;;34.82;54.73;99348.47;5071888;28;20196;-67
2023/08/25 09:15:31;;;;;;;3.55;3.25;;;;;;;34.82;55.01;99345.81;5071678;28;20246;-65
2023/08/25 09:18:02;;;;;;;4.25;3.85;;;;;;;34.90;54.45;99342.97;5072003;28;20257;-67
2023/08/25 09:20:29;;;;;;;3.63;3.33;;;;;;;34.97;52.93;99344.59;5071933;28;20616;-67
2023/08/25 09:22:56;;;;;;;3.90;3.40;;;;;;;34.80;52.68;99340.69;5071597;28;20212;-68
2023/08/25 09:25:25;;;;;;;3.67;3.47;;;;;;;34.53;53.66;99338.97;5071666;28;20282;-67
2023/08/25 09:27:57;;;;;;;4.20;3.45;;;;;;;34.59;53.80;99333.66;5071620;28;20192;-66
2023/08/25 09:30:34;;;;;;;4.05;3.85;;;;;;;34.80;53.80;99335.34;5071375;28;20203;-67
2023/08/25 09:33:04;;;;;;;3.67;3.22;;;;;;;34.96;52.60;99329.63;5067583;28;20734;-67
2023/08/25 09:35:32;;;;;;;4.03;3.72;;;;;;;35.12;53.31;99333.78;5071604;28;20592;-67
2023/08/25 09:37:59;;;;;;;3.35;3.15;;;;;;;35.22;51.86;99319.00;5071565;28;20656;-66
2023/08/25 09:40:28;;;;;;;3.70;3.50;;;;;;;35.04;51.51;99316.13;5071410;28;20200;-68
2023/08/25 09:42:59;;;;;;;10.63;3.55;;;;;;;34.87;55.44;99314.88;5071408;28;20212;-67
2023/08/25 09:45:28;;;;;;;3.47;3.17;;;;;;;35.14;55.05;99311.22;5071630;28;20215;-67
2023/08/25 09:47:55;;;;;;;3.33;3.03;;;;;;;35.23;51.00;99309.97;5071298;28;20196;-66
2023/08/25 09:50:22;;;;;;;5.47;4.38;;;;;;;35.19;52.59;99311.41;5071610;28;20196;-67
2023/08/25 09:52:53;;;;;;;3.67;3.47;;;;;;;35.26;51.49;99308.75;5071149;28;20200;-67
2023/08/25 09:55:22;;;;;;;3.40;3.20;;;;;;;35.30;51.65;99296.66;5070930;28;20202;-66
2023/08/25 09:57:51;;;;;;;3.40;3.20;;;;;;;35.27;50.98;99292.56;5071212;28;20269;-67
2023/08/25 10:00:19;;;;;;;4.00;3.70;;;;;;;35.27;50.71;99276.56;5071398;28;20196;-66
2023/08/25 10:02:46;;;;;;;8.60;3.08;;;;;;;35.46;49.63;99282.88;5071252;28;20717;-67
2023/08/25 10:05:13;;;;;;;3.15;2.95;;;;;;;35.53;50.74;99280.19;5071503;28;20254;-67
2023/08/25 10:07:41;;;;;;;3.58;3.28;;;;;;;35.56;52.58;99264.59;5071172;28;20257;-66
2023/08/25 10:10:09;;;;;;;3.80;3.38;;;;;;;35.79;50.89;99277.47;5070957;28;20200;-67
2023/08/25 10:12:38;;;;;;;3.08;2.88;;;;;;;35.68;50.45;99270.13;5071125;28;20227;-67
2023/08/25 10:15:09;;;;;;;2.95;2.75;;;;;;;35.61;50.06;99264.81;5071155;28;20675;-68
2023/08/25 10:17:36;;;;;;;2.85;2.72;;;;;;;35.77;47.52;99274.19;5070947;28;20287;-67
2023/08/25 10:20:08;;;;;;;4.22;2.25;;;;;;;35.89;47.47;99267.19;5070812;28;20286;-66
2023/08/25 10:22:35;;;;;;;2.75;2.58;;;;;;;36.08;47.53;99266.28;5070535;28;20219;-67
2023/08/25 10:25:03;;;;;;;2.78;2.63;;;;;;;36.15;49.25;99267.09;5070721;28;20196;-66
2023/08/25 10:27:31;;;;;;;3.13;2.92;;;;;;;36.14;49.58;99265.44;5071127;28;20627;-67
2023/08/25 10:29:59;;;;;;;3.28;3.08;;;;;;;36.20;49.38;99263.75;5070656;28;20200;-66
2023/08/25 10:32:48;;;;;;;3.30;3.00;;;;;;;36.21;49.17;99255.53;5070698;28;20223;-66
2023/08/25 10:35:15;;;;;;;3.70;3.03;;;;;;;36.27;48.63;99254.69;5070963;28;20192;-66
2023/08/25 10:37:42;;;;;;;2.92;2.72;;;;;;;36.11;47.62;99247.19;5070802;28;20196;-67
2023/08/25 10:40:10;;;;;;;5.22;3.22;;;;;;;36.32;47.90;99249.50;5071048;28;20254;-66
2023/08/25 10:42:37;;;;;;;3.30;3.05;;;;;;;36.38;47.77;99249.69;5071078;28;20762;-67
2023/08/25 10:45:06;;;;;;;3.38;3.17;;;;;;;36.08;48.26;99236.94;5070728;28;20211;-66
2023/08/25 10:47:44;;;;;;;3.47;3.05;;;;;;;36.19;48.77;99241.56;5071048;28;20200;-66
2023/08/25 10:50:11;;;;;;;3.55;3.33;;;;;;;36.20;47.62;99243.22;5070694;28;20254;-66
2023/08/25 10:52:42;;;;;;;3.35;3.03;;;;;;;36.14;47.43;99238.75;5071018;28;20698;-66
2023/08/25 10:55:26;;;;;;;3.25;3.05;;;;;;;35.98;46.94;99235.72;5070676;28;20287;-66
2023/08/25 10:57:53;;;;;;;3.33;3.13;;;;;;;36.00;49.00;99234.47;5066671;28;20281;-67
2023/08/25 11:00:31;;;;;;;3.40;3.20;;;;;;;35.95;47.38;99234.31;5070656;28;20249;-67
2023/08/25 11:02:59;;;;;;;2.65;2.45;;;;;;;36.04;47.85;99233.00;5070551;28;20215;-67
2023/08/25 11:05:41;;;;;;;2.75;2.55;;;;;;;36.20;46.69;99237.88;5070636;28;20204;-67
2023/08/25 11:08:24;;;;;;;3.70;3.40;;;;;;;36.19;47.82;99222.88;5071812;28;20228;-66
2023/08/25 11:11:13;;;;;;;3.13;2.83;;;;;;;36.05;45.72;99223.97;5074350;28;20578;-68
2023/08/25 11:13:40;;;;;;;3.45;3.25;;;;;;;35.93;45.44;99220.34;5074588;28;20198;-68
2023/08/25 11:16:09;;;;;;;4.63;2.60;;;;;;;35.67;44.65;99212.50;5074347;28;20644;-67
2023/08/25 11:18:39;;;;;;;3.50;2.78;;;;;;;35.52;44.80;99204.69;5074253;28;20196;-66
2023/08/25 11:21:06;;;;;;;3.75;2.10;;;;;;;35.57;43.97;99209.41;5074127;28;20192;-66
2023/08/25 11:23:38;;;;;;;3.00;2.80;;;;;;;35.73;43.28;99222.31;5073989;28;20215;-68
2023/08/25 11:26:05;;;;;;;2.03;1.92;;;;;;;35.84;45.48;99216.28;5074091;28;20664;-67
2023/08/25 11:28:32;;;;;;;2.17;2.08;;;;;;;35.80;41.55;99210.56;5074070;28;20269;-69
2023/08/25 11:30:59;;;;;;;2.35;2.22;;;;;;;35.85;42.35;99201.09;5073727;28;20308;-66
2023/08/25 11:33:26;;;;;;;2.22;2.13;;;;;;;36.05;42.54;99207.16;5073694;28;20192;-66
2023/08/25 11:35:55;;;;;;;2.20;2.10;;;;;;;36.07;43.04;99203.25;5074115;28;20667;-67
2023/08/25 11:38:22;;;;;;;2.88;2.67;;;;;;;36.15;41.96;99202.19;5073616;28;20204;-66
2023/08/25 11:40:49;;;;;;;3.05;2.63;;;;;;;36.32;43.71;99195.28;5073764;28;20196;-66
2023/08/25 11:43:16;;;;;;;2.67;2.55;;;;;;;36.07;40.32;99200.59;5073772;28;20703;-67